sensor_id;sensor_type;location;lat;lon;timestamp;pressure;altitude;pressure_sealevel;temperature;humidity
24746;BME280;12845;52.042;6.838;2023-06-10T00:01:52;-18601.00;;;21.36;78.78
24746;BME280;12845;52.042;6.838;2023-06-10T00:04:20;-18599.38;;;21.30;79.57
24746;BME280;12845;52.042;6.838;2023-06-10T00:06:46;-18601.69;;;21.38;78.05
24746;BME280;12845;52.042;6.838;2023-06-10T00:09:13;-18601.00;;;21.36;79.91
24746;BME280;12845;52.042;6.838;2023-06-10T00:11:39;-18602.09;;;21.40;78.19
24746;BME280;12845;52.042;6.838;2023-06-10T00:14:04;-18605.09;;;21.51;77.61
24746;BME280;12845;52.042;6.838;2023-06-10T00:16:30;-18602.78;;;21.43;78.44
24746;BME280;12845;52.042;6.838;2023-06-10T00:18:55;-18601.69;;;21.38;79.62
24746;BME280;12845;52.042;6.838;2023-06-10T00:21:21;-18600.47;;;21.34;79.34
24746;BME280;12845;52.042;6.838;2023-06-10T00:23:46;-18603.06;;;21.44;79.88
24746;BME280;12845;52.042;6.838;2023-06-10T00:26:11;-18598.28;;;21.26;80.07
24746;BME280;12845;52.042;6.838;2023-06-10T00:28:37;-18600.19;;;21.33;81.03
24746;BME280;12845;52.042;6.838;2023-06-10T00:31:02;-18595.97;;;21.17;82.06
24746;BME280;12845;52.042;6.838;2023-06-10T00:33:29;-18594.91;;;21.13;82.30
24746;BME280;12845;52.042;6.838;2023-06-10T00:35:54;-18594.09;;;21.10;83.25
24746;BME280;12845;52.042;6.838;2023-06-10T00:38:19;-18590.28;;;20.95;84.95
24746;BME280;12845;52.042;6.838;2023-06-10T00:40:45;-18592.84;;;21.05;83.11
24746;BME280;12845;52.042;6.838;2023-06-10T00:43:10;-18590.41;;;20.96;84.70
24746;BME280;12845;52.042;6.838;2023-06-10T00:45:36;-18588.22;;;20.88;85.59
24746;BME280;12845;52.042;6.838;2023-06-10T00:48:01;-18589.31;;;20.92;85.88
24746;BME280;12845;52.042;6.838;2023-06-10T00:50:27;-18590.41;;;20.96;86.44
24746;BME280;12845;52.042;6.838;2023-06-10T00:52:53;-18590.00;;;20.94;85.32
24746;BME280;12845;52.042;6.838;2023-06-10T00:55:18;-18588.09;;;20.87;86.27
24746;BME280;12845;52.042;6.838;2023-06-10T00:57:44;-18592.19;;;21.03;86.31
24746;BME280;12845;52.042;6.838;2023-06-10T01:00:11;-18587.97;;;20.87;86.58
24746;BME280;12845;52.042;6.838;2023-06-10T01:02:37;-18585.66;;;20.78;89.15
24746;BME280;12845;52.042;6.838;2023-06-10T01:05:03;-18585.38;;;20.77;88.76
24746;BME280;12845;52.042;6.838;2023-06-10T01:07:31;-18579.78;;;20.56;90.45
24746;BME280;12845;52.042;6.838;2023-06-10T01:13:07;-18577.06;;;20.46;92.11
24746;BME280;12845;52.042;6.838;2023-06-10T01:15:36;-18578.03;;;20.49;93.78
24746;BME280;12845;52.042;6.838;2023-06-10T01:18:03;-18577.34;;;20.47;93.01
24746;BME280;12845;52.042;6.838;2023-06-10T01:20:29;-18573.66;;;20.33;94.77
24746;BME280;12845;52.042;6.838;2023-06-10T01:22:57;-18573.66;;;20.33;94.67
24746;BME280;12845;52.042;6.838;2023-06-10T01:25:23;-18571.75;;;20.26;95.45
24746;BME280;12845;52.042;6.838;2023-06-10T01:28:02;-18570.41;;;20.21;96.96
24746;BME280;12845;52.042;6.838;2023-06-10T01:30:32;-18567.00;;;20.08;99.43
24746;BME280;12845;52.042;6.838;2023-06-10T01:33:02;-18563.31;;;19.94;100.00
24746;BME280;12845;52.042;6.838;2023-06-10T01:35:31;-18558.97;;;19.78;100.00
24746;BME280;12845;52.042;6.838;2023-06-10T01:37:58;-18555.84;;;19.66;100.00
24746;BME280;12845;52.042;6.838;2023-06-10T01:40:23;-18555.97;;;19.67;100.00
24746;BME280;12845;52.042;6.838;2023-06-10T01:42:48;-18554.34;;;19.60;100.00
24746;BME280;12845;52.042;6.838;2023-06-10T01:45:14;-18553.91;;;19.59;100.00
24746;BME280;12845;52.042;6.838;2023-06-10T01:47:39;-18553.38;;;19.57;100.00
24746;BME280;12845;52.042;6.838;2023-06-10T01:50:04;-18551.75;;;19.51;100.00
24746;BME280;12845;52.042;6.838;2023-06-10T01:52:30;-18549.69;;;19.43;100.00
24746;BME280;12845;52.042;6.838;2023-06-10T01:54:55;-18551.06;;;19.48;100.00
24746;BME280;12845;52.042;6.838;2023-06-10T01:57:20;-18548.59;;;19.39;100.00
24746;BME280;12845;52.042;6.838;2023-06-10T01:59:46;-18550.38;;;19.46;100.00
24746;BME280;12845;52.042;6.838;2023-06-10T02:02:11;-18552.69;;;19.54;100.00
24746;BME280;12845;52.042;6.838;2023-06-10T02:04:36;-18552.44;;;19.53;100.00
24746;BME280;12845;52.042;6.838;2023-06-10T02:07:02;-18548.34;;;19.38;100.00
24746;BME280;12845;52.042;6.838;2023-06-10T02:09:29;-18546.97;;;19.33;100.00
24746;BME280;12845;52.042;6.838;2023-06-10T02:11:54;-18548.47;;;19.38;100.00
24746;BME280;12845;52.042;6.838;2023-06-10T02:14:20;-18547.66;;;19.35;100.00
24746;BME280;12845;52.042;6.838;2023-06-10T02:16:45;-18546.28;;;19.30;100.00
24746;BME280;12845;52.042;6.838;2023-06-10T02:19:12;-18547.25;;;19.34;100.00
24746;BME280;12845;52.042;6.838;2023-06-10T02:21:37;-18544.38;;;19.23;100.00
24746;BME280;12845;52.042;6.838;2023-06-10T02:24:02;-18543.97;;;19.22;100.00
24746;BME280;12845;52.042;6.838;2023-06-10T02:26:28;-18545.34;;;19.27;100.00
24746;BME280;12845;52.042;6.838;2023-06-10T02:28:53;-18539.91;;;19.06;100.00
24746;BME280;12845;52.042;6.838;2023-06-10T02:31:18;-18539.50;;;19.05;100.00
24746;BME280;12845;52.042;6.838;2023-06-10T02:33:44;-18540.72;;;19.09;100.00
24746;BME280;12845;52.042;6.838;2023-06-10T02:36:10;-18538.66;;;19.02;100.00
24746;BME280;12845;52.042;6.838;2023-06-10T02:38:38;-18537.16;;;18.96;100.00
24746;BME280;12845;52.042;6.838;2023-06-10T02:41:03;-18535.66;;;18.90;100.00
24746;BME280;12845;52.042;6.838;2023-06-10T02:43:29;-18539.34;;;19.04;100.00
24746;BME280;12845;52.042;6.838;2023-06-10T02:45:54;-18536.75;;;18.94;100.00
24746;BME280;12845;52.042;6.838;2023-06-10T02:48:19;-18537.31;;;18.97;100.00
24746;BME280;12845;52.042;6.838;2023-06-10T02:50:44;-18535.81;;;18.91;100.00
24746;BME280;12845;52.042;6.838;2023-06-10T02:53:10;-18530.06;;;18.69;100.00
24746;BME280;12845;52.042;6.838;2023-06-10T02:55:35;-18528.44;;;18.63;100.00
24746;BME280;12845;52.042;6.838;2023-06-10T02:58:00;-18529.81;;;18.68;100.00
24746;BME280;12845;52.042;6.838;2023-06-10T03:00:26;-18527.88;;;18.61;100.00
24746;BME280;12845;52.042;6.838;2023-06-10T03:02:51;-18525.44;;;18.52;100.00
24746;BME280;12845;52.042;6.838;2023-06-10T03:05:16;-18527.63;;;18.60;100.00
24746;BME280;12845;52.042;6.838;2023-06-10T03:07:42;-18525.44;;;18.52;100.00
24746;BME280;12845;52.042;6.838;2023-06-10T03:10:07;-18524.75;;;18.49;100.00
24746;BME280;12845;52.042;6.838;2023-06-10T03:12:32;-18522.97;;;18.43;100.00
24746;BME280;12845;52.042;6.838;2023-06-10T03:14:58;-18525.56;;;18.53;100.00
24746;BME280;12845;52.042;6.838;2023-06-10T03:17:23;-18526.25;;;18.55;100.00
24746;BME280;12845;52.042;6.838;2023-06-10T03:19:48;-18526.25;;;18.55;100.00
24746;BME280;12845;52.042;6.838;2023-06-10T03:22:14;-18526.13;;;18.55;100.00
24746;BME280;12845;52.042;6.838;2023-06-10T03:24:39;-18523.25;;;18.44;100.00
24746;BME280;12845;52.042;6.838;2023-06-10T03:27:06;-18523.41;;;18.44;100.00
24746;BME280;12845;52.042;6.838;2023-06-10T03:29:31;-18522.16;;;18.40;100.00
24746;BME280;12845;52.042;6.838;2023-06-10T03:31:57;-18524.34;;;18.48;100.00
24746;BME280;12845;52.042;6.838;2023-06-10T03:34:22;-18523.41;;;18.44;100.00
24746;BME280;12845;52.042;6.838;2023-06-10T03:36:48;-18516.56;;;18.19;100.00
24746;BME280;12845;52.042;6.838;2023-06-10T03:39:13;-18514.81;;;18.12;100.00
24746;BME280;12845;52.042;6.838;2023-06-10T03:41:39;-18517.13;;;18.21;100.00
24746;BME280;12845;52.042;6.838;2023-06-10T03:44:04;-18513.84;;;18.09;100.00
24746;BME280;12845;52.042;6.838;2023-06-10T03:46:29;-18512.47;;;18.03;100.00
24746;BME280;12845;52.042;6.838;2023-06-10T03:48:54;-18513.03;;;18.06;100.00
24746;BME280;12845;52.042;6.838;2023-06-10T03:51:20;-18515.63;;;18.15;100.00
24746;BME280;12845;52.042;6.838;2023-06-10T03:53:46;-18516.31;;;18.18;100.00
24746;BME280;12845;52.042;6.838;2023-06-10T03:56:11;-18519.44;;;18.30;100.00
24746;BME280;12845;52.042;6.838;2023-06-10T03:58:36;-18519.97;;;18.32;100.00
24746;BME280;12845;52.042;6.838;2023-06-10T04:01:01;-18520.13;;;18.32;100.00
24746;BME280;12845;52.042;6.838;2023-06-10T04:03:27;-18521.75;;;18.38;100.00
24746;BME280;12845;52.042;6.838;2023-06-10T04:05:52;-18522.16;;;18.40;100.00
24746;BME280;12845;52.042;6.838;2023-06-10T04:08:17;-18520.53;;;18.34;100.00
24746;BME280;12845;52.042;6.838;2023-06-10T04:10:43;-18521.63;;;18.38;100.00
24746;BME280;12845;52.042;6.838;2023-06-10T04:13:08;-18523.94;;;18.46;100.00
24746;BME280;12845;52.042;6.838;2023-06-10T04:15:34;-18522.97;;;18.43;100.00
24746;BME280;12845;52.042;6.838;2023-06-10T04:17:59;-18522.97;;;18.43;100.00
24746;BME280;12845;52.042;6.838;2023-06-10T04:20:26;-18522.84;;;18.42;100.00
24746;BME280;12845;52.042;6.838;2023-06-10T04:22:51;-18521.22;;;18.36;100.00
24746;BME280;12845;52.042;6.838;2023-06-10T04:25:16;-18522.16;;;18.40;100.00
24746;BME280;12845;52.042;6.838;2023-06-10T04:27:42;-18522.03;;;18.39;100.00
24746;BME280;12845;52.042;6.838;2023-06-10T04:30:08;-18522.72;;;18.42;100.00
24746;BME280;12845;52.042;6.838;2023-06-10T04:32:33;-18524.47;;;18.48;100.00
24746;BME280;12845;52.042;6.838;2023-06-10T04:34:59;-18525.84;;;18.54;100.00
24746;BME280;12845;52.042;6.838;2023-06-10T04:37:25;-18525.97;;;18.54;100.00
24746;BME280;12845;52.042;6.838;2023-06-10T04:39:50;-18523.53;;;18.45;100.00
24746;BME280;12845;52.042;6.838;2023-06-10T04:42:15;-18525.31;;;18.52;100.00
24746;BME280;12845;52.042;6.838;2023-06-10T04:44:40;-18528.44;;;18.63;100.00
24746;BME280;12845;52.042;6.838;2023-06-10T04:47:06;-18530.47;;;18.71;100.00
24746;BME280;12845;52.042;6.838;2023-06-10T04:49:32;-18533.75;;;18.83;100.00
24746;BME280;12845;52.042;6.838;2023-06-10T04:51:58;-18533.75;;;18.83;100.00
24746;BME280;12845;52.042;6.838;2023-06-10T04:54:24;-18532.81;;;18.80;100.00
24746;BME280;12845;52.042;6.838;2023-06-10T04:56:50;-18536.06;;;18.92;100.00
24746;BME280;12845;52.042;6.838;2023-06-10T04:59:15;-18535.53;;;18.90;100.00
24746;BME280;12845;52.042;6.838;2023-06-10T05:01:40;-18535.13;;;18.88;100.00
24746;BME280;12845;52.042;6.838;2023-06-10T05:04:05;-18538.00;;;18.99;100.00
24746;BME280;12845;52.042;6.838;2023-06-10T05:06:31;-18542.06;;;19.14;100.00
24746;BME280;12845;52.042;6.838;2023-06-10T05:08:56;-18543.72;;;19.21;100.00
24746;BME280;12845;52.042;6.838;2023-06-10T05:11:21;-18543.97;;;19.22;100.00
24746;BME280;12845;52.042;6.838;2023-06-10T05:13:47;-18548.47;;;19.38;100.00
24746;BME280;12845;52.042;6.838;2023-06-10T05:16:12;-18546.56;;;19.31;100.00
24746;BME280;12845;52.042;6.838;2023-06-10T05:18:37;-18547.94;;;19.36;100.00
24746;BME280;12845;52.042;6.838;2023-06-10T05:21:02;-18552.56;;;19.54;100.00
24746;BME280;12845;52.042;6.838;2023-06-10T05:23:28;-18551.59;;;19.50;100.00
24746;BME280;12845;52.042;6.838;2023-06-10T05:25:53;-18551.75;;;19.51;100.00
24746;BME280;12845;52.042;6.838;2023-06-10T05:28:18;-18553.66;;;19.58;100.00
24746;BME280;12845;52.042;6.838;2023-06-10T05:30:44;-18557.88;;;19.74;100.00
24746;BME280;12845;52.042;6.838;2023-06-10T05:33:10;-18557.34;;;19.72;100.00
24746;BME280;12845;52.042;6.838;2023-06-10T05:35:35;-18556.25;;;19.68;100.00
24746;BME280;12845;52.042;6.838;2023-06-10T05:38:00;-18557.88;;;19.74;100.00
24746;BME280;12845;52.042;6.838;2023-06-10T05:40:25;-18560.06;;;19.82;100.00
24746;BME280;12845;52.042;6.838;2023-06-10T05:42:51;-18564.56;;;19.99;100.00
24746;BME280;12845;52.042;6.838;2023-06-10T05:45:16;-18567.97;;;20.12;100.00
24746;BME280;12845;52.042;6.838;2023-06-10T05:47:41;-18569.19;;;20.16;100.00
24746;BME280;12845;52.042;6.838;2023-06-10T05:50:07;-18573.53;;;20.33;100.00
24746;BME280;12845;52.042;6.838;2023-06-10T05:52:33;-18574.09;;;20.35;100.00
24746;BME280;12845;52.042;6.838;2023-06-10T05:54:59;-18574.47;;;20.36;100.00
24746;BME280;12845;52.042;6.838;2023-06-10T05:57:24;-18572.44;;;20.28;100.00
24746;BME280;12845;52.042;6.838;2023-06-10T05:59:50;-18576.78;;;20.45;100.00
24746;BME280;12845;52.042;6.838;2023-06-10T06:02:15;-18580.22;;;20.58;100.00
24746;BME280;12845;52.042;6.838;2023-06-10T06:04:40;-18581.69;;;20.63;100.00
24746;BME280;12845;52.042;6.838;2023-06-10T06:07:05;-18580.63;;;20.59;100.00
24746;BME280;12845;52.042;6.838;2023-06-10T06:09:31;-18585.91;;;20.79;100.00
24746;BME280;12845;52.042;6.838;2023-06-10T06:11:56;-18588.91;;;20.90;100.00
24746;BME280;12845;52.042;6.838;2023-06-10T06:14:21;-18593.13;;;21.06;100.00
24746;BME280;12845;52.042;6.838;2023-06-10T06:16:46;-18595.44;;;21.15;100.00
24746;BME280;12845;52.042;6.838;2023-06-10T06:19:12;-18597.06;;;21.21;100.00
24746;BME280;12845;52.042;6.838;2023-06-10T06:21:37;-18598.03;;;21.25;100.00
24746;BME280;12845;52.042;6.838;2023-06-10T06:24:02;-18598.28;;;21.26;98.84
24746;BME280;12845;52.042;6.838;2023-06-10T06:26:28;-18604.16;;;21.48;98.31
24746;BME280;12845;52.042;6.838;2023-06-10T06:28:53;-18604.56;;;21.49;98.36
24746;BME280;12845;52.042;6.838;2023-06-10T06:31:18;-18611.75;;;21.76;95.37
24746;BME280;12845;52.042;6.838;2023-06-10T06:33:43;-18608.75;;;21.65;93.44
24746;BME280;12845;52.042;6.838;2023-06-10T06:36:09;-18611.88;;;21.77;94.11
24746;BME280;12845;52.042;6.838;2023-06-10T06:38:34;-18618.81;;;22.03;90.89
24746;BME280;12845;52.042;6.838;2023-06-10T06:40:59;-18616.38;;;21.94;91.03
24746;BME280;12845;52.042;6.838;2023-06-10T06:43:30;-18621.25;;;22.12;89.52
24746;BME280;12845;52.042;6.838;2023-06-10T06:45:56;-18623.84;;;22.22;88.09
24746;BME280;12845;52.042;6.838;2023-06-10T06:48:21;-18627.91;;;22.37;86.01
24746;BME280;12845;52.042;6.838;2023-06-10T06:50:47;-18630.78;;;22.48;83.82
24746;BME280;12845;52.042;6.838;2023-06-10T06:53:12;-18635.53;;;22.66;82.68
24746;BME280;12845;52.042;6.838;2023-06-10T06:55:37;-18641.63;;;22.89;78.86
24746;BME280;12845;52.042;6.838;2023-06-10T06:58:02;-18646.25;;;23.06;79.22
24746;BME280;12845;52.042;6.838;2023-06-10T07:00:29;-18641.38;;;22.88;78.78
24746;BME280;12845;52.042;6.838;2023-06-10T07:02:54;-18641.78;;;22.89;79.01
24746;BME280;12845;52.042;6.838;2023-06-10T07:05:20;-18648.16;;;23.13;79.62
24746;BME280;12845;52.042;6.838;2023-06-10T07:07:45;-18649.66;;;23.19;74.13
24746;BME280;12845;52.042;6.838;2023-06-10T07:10:10;-18651.41;;;23.26;70.86
24746;BME280;12845;52.042;6.838;2023-06-10T07:12:36;-18655.47;;;23.41;72.01
24746;BME280;12845;52.042;6.838;2023-06-10T07:15:01;-18656.41;;;23.45;66.76
24746;BME280;12845;52.042;6.838;2023-06-10T07:17:26;-18659.81;;;23.57;67.46
24746;BME280;12845;52.042;6.838;2023-06-10T07:19:52;-18661.03;;;23.62;65.85
24746;BME280;12845;52.042;6.838;2023-06-10T07:22:17;-18662.53;;;23.68;67.28
24746;BME280;12845;52.042;6.838;2023-06-10T07:24:42;-18666.19;;;23.81;63.70
24746;BME280;12845;52.042;6.838;2023-06-10T07:27:08;-18670.00;;;23.96;60.21
24746;BME280;12845;52.042;6.838;2023-06-10T07:29:33;-18668.22;;;23.89;54.89
24746;BME280;12845;52.042;6.838;2023-06-10T07:32:00;-18670.66;;;23.98;57.61
24746;BME280;12845;52.042;6.838;2023-06-10T07:34:26;-18674.06;;;24.11;56.26
24746;BME280;12845;52.042;6.838;2023-06-10T07:36:51;-18678.53;;;24.28;54.31
24746;BME280;12845;52.042;6.838;2023-06-10T07:39:16;-18680.41;;;24.35;53.53
24746;BME280;12845;52.042;6.838;2023-06-10T07:41:41;-18684.34;;;24.50;54.57
24746;BME280;12845;52.042;6.838;2023-06-10T07:44:06;-18686.94;;;24.60;52.10
24746;BME280;12845;52.042;6.838;2023-06-10T07:46:32;-18688.81;;;24.67;50.39
24746;BME280;12845;52.042;6.838;2023-06-10T07:48:57;-18691.41;;;24.76;49.71
24746;BME280;12845;52.042;6.838;2023-06-10T07:51:22;-18693.56;;;24.85;48.86
24746;BME280;12845;52.042;6.838;2023-06-10T07:53:47;-18694.50;;;24.88;47.45
24746;BME280;12845;52.042;6.838;2023-06-10T07:56:13;-18698.31;;;25.03;47.42
24746;BME280;12845;52.042;6.838;2023-06-10T07:58:38;-18702.09;;;25.17;46.49
24746;BME280;12845;52.042;6.838;2023-06-10T08:01:03;-18705.63;;;25.30;46.88
24746;BME280;12845;52.042;6.838;2023-06-10T08:03:29;-18710.91;;;25.50;47.15
24746;BME280;12845;52.042;6.838;2023-06-10T08:05:54;-18709.69;;;25.46;46.58
24746;BME280;12845;52.042;6.838;2023-06-10T08:08:19;-18711.03;;;25.51;47.39
24746;BME280;12845;52.042;6.838;2023-06-10T08:10:44;-18716.72;;;25.72;46.64
24746;BME280;12845;52.042;6.838;2023-06-10T08:13:10;-18715.63;;;25.68;46.16
24746;BME280;12845;52.042;6.838;2023-06-10T08:15:35;-18719.69;;;25.83;44.64
24746;BME280;12845;52.042;6.838;2023-06-10T08:18:00;-18720.09;;;25.85;45.52
24746;BME280;12845;52.042;6.838;2023-06-10T08:20:25;-18722.94;;;25.96;44.85
24746;BME280;12845;52.042;6.838;2023-06-10T08:22:51;-18725.91;;;26.07;44.26
24746;BME280;12845;52.042;6.838;2023-06-10T08:25:16;-18723.06;;;25.96;44.61
24746;BME280;12845;52.042;6.838;2023-06-10T08:27:41;-18725.63;;;26.06;44.69
24746;BME280;12845;52.042;6.838;2023-06-10T08:30:07;-18730.38;;;26.24;44.93
24746;BME280;12845;52.042;6.838;2023-06-10T08:32:32;-18730.91;;;26.26;44.40
24746;BME280;12845;52.042;6.838;2023-06-10T08:34:58;-18734.03;;;26.38;44.62
24746;BME280;12845;52.042;6.838;2023-06-10T08:37:23;-18734.84;;;26.41;43.03
24746;BME280;12845;52.042;6.838;2023-06-10T08:39:49;-18736.44;;;26.47;43.52
24746;BME280;12845;52.042;6.838;2023-06-10T08:42:25;-18743.88;;;26.75;42.47
24746;BME280;12845;52.042;6.838;2023-06-10T08:44:55;-18742.69;;;26.70;42.01
24746;BME280;12845;52.042;6.838;2023-06-10T08:47:22;-18740.78;;;26.63;42.34
24746;BME280;12845;52.042;6.838;2023-06-10T08:49:47;-18744.03;;;26.75;42.27
24746;BME280;12845;52.042;6.838;2023-06-10T08:52:16;-18748.22;;;26.91;42.27
24746;BME280;12845;52.042;6.838;2023-06-10T08:54:59;-18751.31;;;27.03;41.32
24746;BME280;12845;52.042;6.838;2023-06-10T08:57:25;-18749.69;;;26.97;42.17
24746;BME280;12845;52.042;6.838;2023-06-10T08:59:50;-18752.94;;;27.09;41.95
24746;BME280;12845;52.042;6.838;2023-06-10T09:02:17;-18761.59;;;27.42;41.60
24746;BME280;12845;52.042;6.838;2023-06-10T09:04:44;-18763.88;;;27.51;42.55
24746;BME280;12845;52.042;6.838;2023-06-10T09:07:11;-18758.88;;;27.32;41.23
24746;BME280;12845;52.042;6.838;2023-06-10T09:09:37;-18756.88;;;27.24;41.73
24746;BME280;12845;52.042;6.838;2023-06-10T09:12:03;-18755.66;;;27.19;41.70
24746;BME280;12845;52.042;6.838;2023-06-10T09:14:28;-18760.78;;;27.39;40.95
24746;BME280;12845;52.042;6.838;2023-06-10T09:16:53;-18764.97;;;27.55;41.35
24746;BME280;12845;52.042;6.838;2023-06-10T09:19:21;-18772.38;;;27.83;41.27
24746;BME280;12845;52.042;6.838;2023-06-10T09:21:47;-18775.22;;;27.94;40.82
24746;BME280;12845;52.042;6.838;2023-06-10T09:24:12;-18778.31;;;28.05;39.81
24746;BME280;12845;52.042;6.838;2023-06-10T09:26:38;-18785.34;;;28.32;39.53
24746;BME280;12845;52.042;6.838;2023-06-10T09:29:03;-18787.75;;;28.41;39.03
24746;BME280;12845;52.042;6.838;2023-06-10T09:31:30;-18787.22;;;28.39;38.49
24746;BME280;12845;52.042;6.838;2023-06-10T09:34:03;-18793.16;;;28.62;39.17
24746;BME280;12845;52.042;6.838;2023-06-10T09:36:29;-18784.53;;;28.29;40.29
24746;BME280;12845;52.042;6.838;2023-06-10T09:38:56;-18788.19;;;28.43;42.00
24746;BME280;12845;52.042;6.838;2023-06-10T09:41:21;-18795.59;;;28.71;39.91
24746;BME280;12845;52.042;6.838;2023-06-10T09:43:46;-18794.50;;;28.67;40.58
24746;BME280;12845;52.042;6.838;2023-06-10T09:46:14;-18802.19;;;28.96;39.08
24746;BME280;12845;52.042;6.838;2023-06-10T09:48:41;-18800.44;;;28.89;38.25
24746;BME280;12845;52.042;6.838;2023-06-10T09:51:10;-18800.16;;;28.88;37.84
24746;BME280;12845;52.042;6.838;2023-06-10T09:53:36;-18801.53;;;28.93;38.58
24746;BME280;12845;52.042;6.838;2023-06-10T09:56:01;-18803.41;;;29.00;38.67
24746;BME280;12845;52.042;6.838;2023-06-10T09:58:36;-18808.53;;;29.20;37.69
24746;BME280;12845;52.042;6.838;2023-06-10T10:01:04;-18808.94;;;29.21;37.26
24746;BME280;12845;52.042;6.838;2023-06-10T10:03:29;-18803.94;;;29.02;37.43
24746;BME280;12845;52.042;6.838;2023-06-10T10:05:58;-18806.50;;;29.12;39.75
24746;BME280;12845;52.042;6.838;2023-06-10T10:08:25;-18807.44;;;29.16;39.34
24746;BME280;12845;52.042;6.838;2023-06-10T10:10:50;-18801.38;;;28.93;39.35
24746;BME280;12845;52.042;6.838;2023-06-10T10:13:15;-18814.44;;;29.42;38.39
24746;BME280;12845;52.042;6.838;2023-06-10T10:15:41;-18817.56;;;29.54;38.47
24746;BME280;12845;52.042;6.838;2023-06-10T10:18:08;-18818.75;;;29.59;39.17
24746;BME280;12845;52.042;6.838;2023-06-10T10:20:34;-18820.94;;;29.67;37.39
24746;BME280;12845;52.042;6.838;2023-06-10T10:23:02;-18815.25;;;29.45;38.35
24746;BME280;12845;52.042;6.838;2023-06-10T10:25:29;-18815.41;;;29.46;38.02
24746;BME280;12845;52.042;6.838;2023-06-10T10:27:57;-18817.56;;;29.54;36.46
24746;BME280;12845;52.042;6.838;2023-06-10T10:30:23;-18817.16;;;29.53;37.83
24746;BME280;12845;52.042;6.838;2023-06-10T10:33:05;-18824.41;;;29.80;38.29
24746;BME280;12845;52.042;6.838;2023-06-10T10:35:32;-18827.66;;;29.93;37.83
24746;BME280;12845;52.042;6.838;2023-06-10T10:37:58;-18834.38;;;30.18;37.41
24746;BME280;12845;52.042;6.838;2023-06-10T10:40:23;-18834.38;;;30.18;37.57
24746;BME280;12845;52.042;6.838;2023-06-10T10:42:51;-18837.34;;;30.29;36.67
24746;BME280;12845;52.042;6.838;2023-06-10T10:45:17;-18836.53;;;30.26;36.15
24746;BME280;12845;52.042;6.838;2023-06-10T10:47:44;-18834.91;;;30.20;37.23
24746;BME280;12845;52.042;6.838;2023-06-10T10:50:16;-18840.84;;;30.43;35.87
24746;BME280;12845;52.042;6.838;2023-06-10T10:55:13;-18832.22;;;30.10;36.67
24746;BME280;12845;52.042;6.838;2023-06-10T10:57:38;-18833.97;;;30.17;37.65
24746;BME280;12845;52.042;6.838;2023-06-10T11:00:04;-18845.28;;;30.60;36.64
24746;BME280;12845;52.042;6.838;2023-06-10T11:02:36;-18842.44;;;30.49;35.72
24746;BME280;12845;52.042;6.838;2023-06-10T11:05:06;-18839.78;;;30.39;35.51
24746;BME280;12845;52.042;6.838;2023-06-10T11:07:32;-18836.94;;;30.28;36.26
24746;BME280;12845;52.042;6.838;2023-06-10T11:10:02;-18844.06;;;30.55;36.29
24746;BME280;12845;52.042;6.838;2023-06-10T11:15:11;-18848.09;;;30.70;36.51
24746;BME280;12845;52.042;6.838;2023-06-10T11:17:37;-18853.88;;;30.92;35.10
24746;BME280;12845;52.042;6.838;2023-06-10T11:20:02;-18848.09;;;30.70;35.49
24746;BME280;12845;52.042;6.838;2023-06-10T11:22:27;-18850.78;;;30.80;35.51
24746;BME280;12845;52.042;6.838;2023-06-10T11:24:53;-18859.81;;;31.15;33.45
24746;BME280;12845;52.042;6.838;2023-06-10T11:27:21;-18855.78;;;30.99;32.80
24746;BME280;12845;52.042;6.838;2023-06-10T11:32:33;-18860.47;;;31.17;32.21
24746;BME280;12845;52.042;6.838;2023-06-10T11:34:59;-18851.59;;;30.84;33.76
24746;BME280;12845;52.042;6.838;2023-06-10T11:37:25;-18853.34;;;30.90;33.09
24746;BME280;12845;52.042;6.838;2023-06-10T11:39:53;-18858.31;;;31.09;33.89
24746;BME280;12845;52.042;6.838;2023-06-10T11:42:19;-18855.38;;;30.98;32.53
24746;BME280;12845;52.042;6.838;2023-06-10T11:44:54;-18859.66;;;31.14;33.76
24746;BME280;12845;52.042;6.838;2023-06-10T11:47:19;-18869.47;;;31.52;32.12
24746;BME280;12845;52.042;6.838;2023-06-10T11:49:45;-18871.34;;;31.59;31.39
24746;BME280;12845;52.042;6.838;2023-06-10T11:52:10;-18867.47;;;31.44;31.15
24746;BME280;12845;52.042;6.838;2023-06-10T11:54:36;-18868.53;;;31.48;31.55
24746;BME280;12845;52.042;6.838;2023-06-10T11:57:02;-18872.31;;;31.62;33.04
24746;BME280;12845;52.042;6.838;2023-06-10T11:59:28;-18873.91;;;31.68;32.77
24746;BME280;12845;52.042;6.838;2023-06-10T12:01:53;-18874.59;;;31.71;32.74
24746;BME280;12845;52.042;6.838;2023-06-10T12:04:19;-18873.09;;;31.65;31.77
24746;BME280;12845;52.042;6.838;2023-06-10T12:06:44;-18872.84;;;31.64;31.37
24746;BME280;12845;52.042;6.838;2023-06-10T12:11:40;-18875.78;;;31.76;31.39
24746;BME280;12845;52.042;6.838;2023-06-10T12:14:05;-18878.06;;;31.84;30.48
24746;BME280;12845;52.042;6.838;2023-06-10T12:16:31;-18886.53;;;32.17;30.91
24746;BME280;12845;52.042;6.838;2023-06-10T12:19:00;-18888.41;;;32.24;30.41
24746;BME280;12845;52.042;6.838;2023-06-10T12:21:26;-18887.19;;;32.19;30.02
24746;BME280;12845;52.042;6.838;2023-06-10T12:26:39;-18887.06;;;32.19;31.22
24746;BME280;12845;52.042;6.838;2023-06-10T12:29:23;-18887.19;;;32.19;29.42
24746;BME280;12845;52.042;6.838;2023-06-10T12:31:53;-18892.97;;;32.41;29.78
24746;BME280;12845;52.042;6.838;2023-06-10T12:34:18;-18887.06;;;32.19;30.01
24746;BME280;12845;52.042;6.838;2023-06-10T12:36:48;-18894.44;;;32.47;29.79
24746;BME280;12845;52.042;6.838;2023-06-10T12:39:13;-18899.16;;;32.65;30.92
24746;BME280;12845;52.042;6.838;2023-06-10T12:41:38;-18902.63;;;32.78;30.23
24746;BME280;12845;52.042;6.838;2023-06-10T12:44:04;-18906.38;;;32.92;30.61
24746;BME280;12845;52.042;6.838;2023-06-10T12:46:35;-18908.00;;;32.98;28.82
24746;BME280;12845;52.042;6.838;2023-06-10T12:49:00;-18909.34;;;33.03;30.41
24746;BME280;12845;52.042;6.838;2023-06-10T12:51:26;-18909.88;;;33.06;30.02
24746;BME280;12845;52.042;6.838;2023-06-10T12:53:51;-18911.34;;;33.11;30.38
24746;BME280;12845;52.042;6.838;2023-06-10T12:56:17;-18912.16;;;33.14;29.25